createdAt,value
2023-05-06T00:01:03.608Z,100490.19
2023-05-06T00:03:06.982Z,100485.69
2023-05-06T00:05:11.022Z,100491.75
2023-05-06T00:07:14.597Z,100484.75
2023-05-06T00:09:17.994Z,100485.69
2023-05-06T00:11:22.974Z,100478.72
2023-05-06T00:13:26.043Z,100476.41
2023-05-06T00:15:30.880Z,100473.16
2023-05-06T00:17:35.581Z,100473.63
2023-05-06T00:19:39.173Z,100488.09
2023-05-06T00:21:42.737Z,100489.19
2023-05-06T00:23:46.052Z,100488.34
2023-05-06T00:25:49.344Z,100496.53
2023-05-06T00:27:54.586Z,100499.44
2023-05-06T00:29:59.032Z,100505.81
2023-05-06T00:32:02.409Z,100506.81
2023-05-06T00:34:05.775Z,100513.22
2023-05-06T00:36:09.729Z,100521.34
2023-05-06T00:38:15.340Z,100522.34
2023-05-06T00:40:19.174Z,100518.94
2023-05-06T00:42:23.748Z,100514.59
2023-05-06T00:44:28.489Z,100518.22
2023-05-06T00:46:31.866Z,100507.69
2023-05-06T00:48:35.675Z,100506.97
2023-05-06T00:50:41.559Z,100505.41
2023-05-06T00:52:45.259Z,100509.00
2023-05-06T00:54:48.673Z,100510.94
2023-05-06T00:56:52.034Z,100509.13
2023-05-06T00:58:56.032Z,100517.97
2023-05-06T01:01:02.035Z,100509.88
2023-05-06T01:03:05.938Z,100510.81
2023-05-06T01:05:10.956Z,100496.09
2023-05-06T01:07:28.005Z,100491.47
2023-05-06T01:09:39.739Z,100498.09
2023-05-06T01:11:47.452Z,100497.13
2023-05-06T01:13:58.258Z,100510.91
2023-05-06T01:16:04.209Z,100501.75
2023-05-06T01:18:12.142Z,100503.09
2023-05-06T01:20:16.515Z,100504.56
2023-05-06T01:22:20.789Z,100501.03
2023-05-06T01:24:36.670Z,100499.69
2023-05-06T01:26:42.708Z,100495.47
2023-05-06T01:28:46.405Z,100496.44
2023-05-06T01:30:56.927Z,100492.53
2023-05-06T01:33:08.050Z,100493.72
2023-05-06T01:35:19.926Z,100488.31
2023-05-06T01:37:29.432Z,100492.53
2023-05-06T01:39:35.651Z,100484.56
2023-05-06T01:41:41.764Z,100484.56
2023-05-06T01:43:50.431Z,100487.97
2023-05-06T01:45:56.418Z,100479.88
2023-05-06T01:48:00.640Z,100478.81
2023-05-06T01:50:05.976Z,100477.13
2023-05-06T01:52:10.436Z,100465.88
2023-05-06T01:54:14.312Z,100468.63
2023-05-06T01:56:19.167Z,100472.03
2023-05-06T01:58:22.807Z,100482.53
2023-05-06T02:00:26.947Z,100480.59
2023-05-06T02:02:30.587Z,100470.72
2023-05-06T02:04:33.999Z,100478.81
2023-05-06T02:06:37.531Z,100475.41
2023-05-06T02:08:41.989Z,100474.47
2023-05-06T02:10:49.299Z,100475.41
2023-05-06T02:12:56.259Z,100483.63
2023-05-06T02:14:59.300Z,100478.66
2023-05-06T02:17:05.234Z,100478.03
2023-05-06T02:19:08.958Z,100483.59
2023-05-06T02:21:12.547Z,100484.66
2023-05-06T02:23:15.999Z,100476.06
2023-05-06T02:25:19.756Z,100480.44
2023-05-06T02:27:23.410Z,100478.50
2023-05-06T02:29:28.402Z,100479.22
2023-05-06T02:31:33.231Z,100479.13
2023-05-06T02:33:36.854Z,100481.06
2023-05-06T02:35:41.177Z,100482.97
2023-05-06T02:37:45.701Z,100481.13
2023-05-06T02:39:49.393Z,100485.00
2023-05-06T02:41:53.175Z,100478.34
2023-05-06T02:43:56.735Z,100475.78
2023-05-06T02:46:02.093Z,100479.41
2023-05-06T02:48:06.419Z,100484.50
2023-05-06T02:50:10.353Z,100478.22
2023-05-06T02:52:14.044Z,100475.56
2023-05-06T02:54:17.641Z,100486.53
2023-05-06T02:56:21.251Z,100482.28
2023-05-06T02:58:26.421Z,100490.38
2023-05-06T03:00:30.040Z,100481.78
2023-05-06T03:02:35.247Z,100492.41
2023-05-06T03:04:38.879Z,100489.75
2023-05-06T03:06:42.540Z,100492.50
2023-05-06T03:08:46.219Z,100491.56
2023-05-06T03:10:50.515Z,100493.16
2023-05-06T03:12:56.289Z,100485.19
2023-05-06T03:14:59.871Z,100493.38
2023-05-06T03:17:03.853Z,100483.72
2023-05-06T03:19:11.705Z,100483.72
2023-05-06T03:21:15.986Z,100491.56
2023-05-06T03:23:22.069Z,100484.34
2023-05-06T03:25:26.198Z,100483.72
2023-05-06T03:27:30.511Z,100487.31
2023-05-06T03:29:39.414Z,100484.66
2023-05-06T03:31:44.863Z,100482.03
2023-05-06T03:33:49.861Z,100486.81
2023-05-06T03:35:55.527Z,100484.38
2023-05-06T03:37:59.272Z,100477.38
2023-05-06T03:40:10.487Z,100477.19
2023-05-06T03:42:14.499Z,100477.19
2023-05-06T03:44:18.317Z,100479.84
2023-05-06T03:46:22.091Z,100475.47
2023-05-06T03:48:26.098Z,100465.81
2023-05-06T03:50:31.228Z,100467.63
2023-05-06T03:52:36.360Z,100467.84
2023-05-06T03:54:40.886Z,100470.84
2023-05-06T03:56:44.822Z,100464.91
2023-05-06T03:58:49.124Z,100471.19
2023-05-06T04:00:53.719Z,100460.69
2023-05-06T04:02:57.311Z,100468.53
2023-05-06T04:05:18.183Z,100465.88
2023-05-06T04:07:22.608Z,100469.38
2023-05-06T04:09:28.641Z,100472.03
2023-05-06T04:11:32.680Z,100473.84
2023-05-06T04:13:38.523Z,100473.84
2023-05-06T04:15:49.782Z,100475.16
2023-05-06T04:17:58.382Z,100466.66
2023-05-06T04:20:07.344Z,100473.66
2023-05-06T04:22:11.528Z,100470.78
2023-05-06T04:24:16.234Z,100469.84
2023-05-06T04:26:21.283Z,100471.50
2023-05-06T04:28:25.378Z,100472.50
2023-05-06T04:30:31.035Z,100469.84
2023-05-06T04:32:35.283Z,100470.56
2023-05-06T04:34:40.706Z,100469.59
2023-05-06T04:36:49.706Z,100475.63
2023-05-06T04:39:06.844Z,100477.44
2023-05-06T04:41:12.242Z,100478.28
2023-05-06T04:43:17.900Z,100474.69
2023-05-06T04:45:24.653Z,100479.34
2023-05-06T04:47:29.297Z,100474.38
2023-05-06T04:49:33.220Z,100482.34
2023-05-06T04:51:38.388Z,100469.09
2023-05-06T04:53:42.653Z,100470.91
2023-05-06T04:55:46.560Z,100486.81
2023-05-06T04:57:50.547Z,100485.13
2023-05-06T04:59:55.606Z,100481.63
2023-05-06T05:01:59.270Z,100479.81
2023-05-06T05:04:03.002Z,100482.34
2023-05-06T05:06:07.517Z,100480.44
2023-05-06T05:08:13.493Z,100487.41
2023-05-06T05:10:17.665Z,100486.94
2023-05-06T05:12:21.486Z,100477.50
2023-05-06T05:14:27.624Z,100481.31
2023-05-06T05:16:33.029Z,100477.94
2023-05-06T05:18:38.674Z,100487.38
2023-05-06T05:20:49.486Z,100488.13
2023-05-06T05:22:54.421Z,100495.59
2023-05-06T05:24:58.318Z,100487.66
2023-05-06T05:27:02.483Z,100488.59
2023-05-06T05:29:06.759Z,100487.88
2023-05-06T05:31:10.801Z,100497.19
2023-05-06T05:33:16.639Z,100493.00
2023-05-06T05:35:22.476Z,100493.94
2023-05-06T05:37:28.559Z,100487.09
2023-05-06T05:39:32.231Z,100494.25
2023-05-06T05:41:36.680Z,100491.75
2023-05-06T05:43:40.383Z,100491.06
2023-05-06T05:45:44.452Z,100497.41
2023-05-06T05:47:48.765Z,100493.31
2023-05-06T05:49:54.789Z,100497.19
2023-05-06T05:51:59.947Z,100492.13
2023-05-06T05:54:05.432Z,100498.72
2023-05-06T05:56:09.962Z,100498.97
2023-05-06T05:58:14.183Z,100510.34
2023-05-06T06:00:21.572Z,100501.06
2023-05-06T06:02:29.293Z,100495.97
2023-05-06T06:04:33.986Z,100500.69
2023-05-06T06:06:39.205Z,100499.91
2023-05-06T06:08:42.858Z,100501.59
2023-05-06T06:10:47.571Z,100505.56
2023-05-06T06:12:56.370Z,100506.16
2023-05-06T06:15:03.903Z,100506.91
2023-05-06T06:17:08.034Z,100510.34
2023-05-06T06:19:11.772Z,100514.69
2023-05-06T06:21:15.881Z,100517.50
2023-05-06T06:23:21.107Z,100521.72
2023-05-06T06:25:24.953Z,100515.81
2023-05-06T06:27:28.685Z,100516.75
2023-05-06T06:29:32.467Z,100518.00
2023-05-06T06:31:38.356Z,100519.94
2023-05-06T06:33:43.441Z,100534.22
2023-05-06T06:35:47.598Z,100524.44
2023-05-06T06:37:51.266Z,100529.50
2023-05-06T06:39:56.315Z,100531.78
2023-05-06T06:42:00.207Z,100529.50
2023-05-06T06:44:11.982Z,100534.09
2023-05-06T06:46:15.349Z,100533.38
2023-05-06T06:48:18.764Z,100533.75
2023-05-06T06:50:22.498Z,100540.06
2023-05-06T06:52:25.915Z,100540.88
2023-05-06T06:54:29.357Z,100536.53
2023-05-06T06:56:34.122Z,100538.09
2023-05-06T06:58:37.575Z,100531.69
2023-05-06T07:00:40.910Z,100535.66
2023-05-06T07:02:44.514Z,100533.00
2023-05-06T07:04:47.949Z,100537.63
2023-05-06T07:06:51.360Z,100539.28
2023-05-06T07:08:54.752Z,100538.81
2023-05-06T07:10:58.083Z,100542.53
2023-05-06T07:13:03.135Z,100537.56
2023-05-06T07:15:08.222Z,100537.91
2023-05-06T07:17:11.928Z,100543.31
2023-05-06T07:19:15.555Z,100542.56
2023-05-06T07:21:19.052Z,100544.47
2023-05-06T07:23:22.636Z,100548.56
2023-05-06T07:25:27.572Z,100544.81
2023-05-06T07:27:31.893Z,100539.69
2023-05-06T07:29:37.556Z,100538.78
2023-05-06T07:31:41.050Z,100541.53
2023-05-06T07:33:44.442Z,100540.69
2023-05-06T07:35:47.805Z,100537.44
2023-05-06T07:37:51.687Z,100545.19
2023-05-06T07:39:55.221Z,100543.63
2023-05-06T07:41:58.631Z,100541.94
2023-05-06T07:44:02.183Z,100544.47
2023-05-06T07:46:07.506Z,100552.84
2023-05-06T07:48:11.070Z,100549.31
2023-05-06T07:50:14.452Z,100553.41
2023-05-06T07:52:17.835Z,100555.25
2023-05-06T07:54:21.157Z,100554.97
2023-05-06T07:56:24.672Z,100549.16
2023-05-06T07:58:28.345Z,100560.72
2023-05-06T08:00:32.136Z,100563.47
2023-05-06T08:02:38.741Z,100558.47
2023-05-06T08:04:42.958Z,100559.22
2023-05-06T08:06:46.553Z,100555.59
2023-05-06T08:08:49.871Z,100553.63
2023-05-06T08:10:53.247Z,100552.66
2023-05-06T08:12:56.703Z,100550.81
2023-05-06T08:15:00.185Z,100561.81
2023-05-06T08:17:03.667Z,100560.44
2023-05-06T08:19:08.753Z,100574.25
2023-05-06T08:21:11.858Z,100567.66
2023-05-06T08:23:15.378Z,100569.22
2023-05-06T08:25:19.600Z,100573.47
2023-05-06T08:27:23.293Z,100563.41
2023-05-06T08:29:26.625Z,100566.75
2023-05-06T08:31:30.380Z,100569.16
2023-05-06T08:33:33.967Z,100567.34
2023-05-06T08:35:38.720Z,100564.41
2023-05-06T08:37:41.987Z,100564.00
2023-05-06T08:39:45.736Z,100564.34
2023-05-06T08:41:51.651Z,100567.47
2023-05-06T08:43:56.353Z,100561.28
2023-05-06T08:45:59.968Z,100569.66
2023-05-06T08:48:03.762Z,100568.25
2023-05-06T08:50:08.304Z,100575.53
2023-05-06T08:52:13.461Z,100571.78
2023-05-06T08:54:17.258Z,100573.72
2023-05-06T08:56:23.422Z,100574.13
2023-05-06T08:58:28.319Z,100575.22
2023-05-06T09:00:31.354Z,100574.75
2023-05-06T09:02:34.892Z,100573.53
2023-05-06T09:04:38.673Z,100570.59
2023-05-06T09:06:42.057Z,100565.72
2023-05-06T09:08:46.845Z,100566.63
2023-05-06T09:10:50.307Z,100562.72
2023-05-06T09:12:56.306Z,100553.97
2023-05-06T09:14:59.672Z,100561.81
2023-05-06T09:17:03.403Z,100559.69
2023-05-06T09:19:07.099Z,100546.34
2023-05-06T09:21:10.480Z,100548.28
2023-05-06T09:23:15.810Z,100544.72
2023-05-06T09:25:20.648Z,100545.25
2023-05-06T09:27:24.955Z,100550.13
2023-05-06T09:29:28.837Z,100548.94
2023-05-06T09:31:33.252Z,100551.16
2023-05-06T09:33:37.857Z,100557.91
2023-05-06T09:35:43.412Z,100554.06
2023-05-06T09:37:47.096Z,100555.59
2023-05-06T09:39:51.528Z,100560.25
2023-05-06T09:41:56.920Z,100570.41
2023-05-06T09:44:01.016Z,100573.63
2023-05-06T09:46:06.389Z,100571.13
2023-05-06T09:48:10.525Z,100570.38
2023-05-06T09:50:15.732Z,100565.03
2023-05-06T09:52:21.025Z,100572.84
2023-05-06T09:54:26.688Z,100568.09
2023-05-06T09:56:32.432Z,100567.56
2023-05-06T09:58:37.774Z,100570.38
2023-05-06T10:00:42.609Z,100574.88
2023-05-06T10:02:48.131Z,100569.13
2023-05-06T10:04:52.421Z,100561.59
2023-05-06T10:06:58.097Z,100570.03
2023-05-06T10:09:02.595Z,100565.97
2023-05-06T10:11:07.792Z,100568.22
2023-05-06T10:13:12.178Z,100569.66
2023-05-06T10:15:17.550Z,100568.81
2023-05-06T10:17:25.654Z,100566.56
2023-05-06T10:19:30.030Z,100579.78
2023-05-06T10:21:37.431Z,100571.63
2023-05-06T10:23:45.842Z,100579.78
2023-05-06T10:25:52.955Z,100576.00
2023-05-06T10:27:57.072Z,100574.75
2023-05-06T10:30:02.114Z,100569.81
2023-05-06T10:32:11.104Z,100576.03
2023-05-06T10:34:14.886Z,100582.34
2023-05-06T10:36:21.650Z,100567.00
2023-05-06T10:38:31.314Z,100574.03
2023-05-06T10:40:35.199Z,100566.91
2023-05-06T10:42:38.985Z,100565.22
2023-05-06T10:44:58.829Z,100564.66
2023-05-06T10:47:02.893Z,100560.59
2023-05-06T10:49:20.574Z,100569.28
2023-05-06T10:51:29.645Z,100569.13
2023-05-06T10:54:02.760Z,100569.13
2023-05-06T10:56:10.553Z,100566.63
2023-05-06T10:58:16.140Z,100566.66
2023-05-06T11:00:20.712Z,100573.41
2023-05-06T11:02:25.501Z,100574.53
2023-05-06T11:04:31.805Z,100566.69
2023-05-06T11:06:37.410Z,100568.22
2023-05-06T11:08:41.464Z,100570.34
2023-05-06T11:10:45.322Z,100570.31
2023-05-06T11:12:50.549Z,100564.56
2023-05-06T11:14:55.209Z,100570.31
2023-05-06T11:17:01.800Z,100568.06
2023-05-06T11:19:05.978Z,100572.97
2023-05-06T11:21:42.361Z,100576.66
2023-05-06T11:24:14.260Z,100574.22
2023-05-06T11:26:17.960Z,100574.22
2023-05-06T11:28:22.630Z,100574.78
2023-05-06T11:30:26.662Z,100573.06
2023-05-06T11:32:31.283Z,100571.06
2023-05-06T11:34:35.594Z,100571.63
2023-05-06T11:36:48.180Z,100567.53
2023-05-06T11:38:53.223Z,100575.00
2023-05-06T11:40:56.975Z,100573.59
2023-05-06T11:43:12.296Z,100574.31
2023-05-06T11:45:17.074Z,100574.91
2023-05-06T11:47:23.885Z,100577.75
2023-05-06T11:49:28.534Z,100572.72
2023-05-06T11:51:32.795Z,100575.41
2023-05-06T11:53:38.776Z,100574.28
2023-05-06T11:55:42.371Z,100580.31
2023-05-06T11:57:47.189Z,100573.44
2023-05-06T11:59:55.737Z,100570.91
2023-05-06T12:02:01.124Z,100573.47
2023-05-06T12:04:04.922Z,100576.25
2023-05-06T12:06:09.923Z,100571.75
2023-05-06T12:08:23.521Z,100571.59
2023-05-06T12:10:31.441Z,100571.59
2023-05-06T12:12:35.301Z,100575.41
2023-05-06T12:14:39.848Z,100575.41
2023-05-06T12:16:46.975Z,100579.66
2023-05-06T12:18:50.960Z,100583.59
2023-05-06T12:20:55.868Z,100577.00
2023-05-06T12:23:08.690Z,100573.19
2023-05-06T12:25:16.058Z,100588.50
2023-05-06T12:27:35.070Z,100575.13
2023-05-06T12:29:38.785Z,100576.81
2023-05-06T12:31:43.343Z,100581.34
2023-05-06T12:33:49.186Z,100577.81
2023-05-06T12:35:54.873Z,100580.22
2023-05-06T12:37:59.589Z,100585.84
2023-05-06T12:40:04.133Z,100582.94
2023-05-06T12:42:08.339Z,100583.63
2023-05-06T12:44:39.034Z,100578.28
2023-05-06T12:46:52.892Z,100581.66
2023-05-06T12:49:00.882Z,100577.09
2023-05-06T12:51:19.436Z,100575.16
2023-05-06T12:53:33.511Z,100576.56
2023-05-06T12:55:38.035Z,100570.03
2023-05-06T12:57:41.790Z,100574.00
2023-05-06T12:59:47.634Z,100576.13
2023-05-06T13:01:51.561Z,100572.06
2023-05-06T13:03:56.810Z,100577.81
2023-05-06T13:06:00.395Z,100571.75
2023-05-06T13:08:04.696Z,100574.88
2023-05-06T13:10:09.505Z,100568.13
2023-05-06T13:12:13.525Z,100576.72
2023-05-06T13:14:17.739Z,100577.56
2023-05-06T13:16:22.949Z,100585.03
2023-05-06T13:18:26.810Z,100577.16
2023-05-06T13:20:30.698Z,100584.47
2023-05-06T13:22:50.673Z,100591.91
2023-05-06T13:24:57.293Z,100585.44
2023-05-06T13:27:01.262Z,100583.72
2023-05-06T13:29:05.306Z,100587.50
2023-05-06T13:31:09.599Z,100585.34
2023-05-06T13:33:17.063Z,100593.34
2023-05-06T13:35:20.657Z,100588.53
2023-05-06T13:37:24.356Z,100593.31
2023-05-06T13:39:27.967Z,100591.34
2023-05-06T13:41:32.076Z,100592.06
2023-05-06T13:43:35.671Z,100591.63
2023-05-06T13:45:39.416Z,100596.50
2023-05-06T13:47:44.422Z,100600.13
2023-05-06T13:49:49.588Z,100596.59
2023-05-06T13:51:53.735Z,100602.31
2023-05-06T13:53:57.448Z,100601.59
2023-05-06T13:56:01.219Z,100597.69
2023-05-06T13:58:05.677Z,100601.13
2023-05-06T14:00:11.173Z,100597.75
2023-05-06T14:02:14.887Z,100597.25
2023-05-06T14:04:18.558Z,100601.19
2023-05-06T14:06:23.772Z,100604.16
2023-05-06T14:08:27.353Z,100611.38
2023-05-06T14:10:31.011Z,100606.56
2023-05-06T14:12:34.978Z,100600.38
2023-05-06T14:14:38.624Z,100597.44
2023-05-06T14:16:42.458Z,100601.22
2023-05-06T14:18:46.237Z,100598.25
2023-05-06T14:20:49.911Z,100588.59
2023-05-06T14:22:54.977Z,100590.03
2023-05-06T14:24:58.566Z,100586.47
2023-05-06T14:27:02.058Z,100580.97
2023-05-06T14:29:05.705Z,100590.25
2023-05-06T14:31:09.567Z,100584.66
2023-05-06T14:33:13.585Z,100585.19
2023-05-06T14:35:17.334Z,100580.72
2023-05-06T14:37:21.006Z,100582.34
2023-05-06T14:39:26.214Z,100581.91
2023-05-06T14:41:29.772Z,100580.09
2023-05-06T14:43:33.343Z,100577.03
2023-05-06T14:45:36.994Z,100574.78
2023-05-06T14:47:41.480Z,100577.47
2023-05-06T14:49:45.365Z,100570.88
2023-05-06T14:51:50.117Z,100576.09
2023-05-06T14:53:53.808Z,100564.16
2023-05-06T14:55:58.711Z,100566.38
2023-05-06T14:58:02.282Z,100567.47
2023-05-06T15:00:10.190Z,100560.25
2023-05-06T15:02:14.121Z,100563.34
2023-05-06T15:04:17.916Z,100562.09
2023-05-06T15:06:21.525Z,100569.84
2023-05-06T15:08:25.345Z,100564.28
2023-05-06T15:10:28.959Z,100559.78
2023-05-06T15:12:34.685Z,100552.63
2023-05-06T15:14:38.277Z,100551.50
2023-05-06T15:16:41.979Z,100558.22
2023-05-06T15:18:45.793Z,100563.44
2023-05-06T15:20:49.293Z,100553.16
2023-05-06T15:22:52.842Z,100556.41
2023-05-06T15:24:57.074Z,100560.50
2023-05-06T15:27:00.964Z,100557.22
2023-05-06T15:29:07.527Z,100548.25
2023-05-06T15:31:11.404Z,100539.13
2023-05-06T15:33:15.355Z,100536.84
2023-05-06T15:35:19.105Z,100545.88
2023-05-06T15:37:22.655Z,100540.91
2023-05-06T15:39:26.610Z,100547.13
2023-05-06T15:41:32.512Z,100550.75
2023-05-06T15:43:38.120Z,100547.50
2023-05-06T15:45:44.326Z,100539.34
2023-05-06T15:47:48.877Z,100535.72
2023-05-06T15:49:54.791Z,100538.00
2023-05-06T15:52:01.092Z,100539.66
2023-05-06T15:54:05.323Z,100539.41
2023-05-06T15:56:18.191Z,100543.34
2023-05-06T15:58:22.702Z,100539.66
2023-05-06T16:00:27.976Z,100548.97
2023-05-06T16:02:34.161Z,100544.75
2023-05-06T16:04:38.055Z,100545.00
2023-05-06T16:06:41.788Z,100544.03
2023-05-06T16:08:45.385Z,100547.28
2023-05-06T16:10:48.891Z,100550.50
2023-05-06T16:12:52.507Z,100550.78
2023-05-06T16:14:56.374Z,100558.13
2023-05-06T16:16:59.984Z,100548.41
2023-05-06T16:19:05.386Z,100547.56
2023-05-06T16:21:09.064Z,100553.16
2023-05-06T16:23:13.747Z,100554.84
2023-05-06T16:25:17.663Z,100548.41
2023-05-06T16:27:22.990Z,100551.50
2023-05-06T16:29:26.792Z,100552.63
2023-05-06T16:31:30.770Z,100555.59
2023-05-06T16:33:34.504Z,100568.97
2023-05-06T16:35:39.640Z,100576.44
2023-05-06T16:37:44.730Z,100573.63
2023-05-06T16:39:48.443Z,100580.78
2023-05-06T16:41:57.880Z,100572.22
2023-05-06T16:44:01.871Z,100575.72
2023-05-06T16:46:06.167Z,100586.25
2023-05-06T16:48:09.717Z,100583.31
2023-05-06T16:50:14.285Z,100583.19
2023-05-06T16:52:19.738Z,100590.19
2023-05-06T16:54:23.308Z,100591.88
2023-05-06T16:56:36.672Z,100597.09
2023-05-06T16:58:48.010Z,100592.72
2023-05-06T17:00:54.507Z,100592.63
2023-05-06T17:02:58.823Z,100591.47
2023-05-06T17:05:02.609Z,100591.22
2023-05-06T17:07:06.292Z,100589.25
2023-05-06T17:09:11.450Z,100588.13
2023-05-06T17:11:15.209Z,100600.09
2023-05-06T17:13:19.097Z,100606.00
2023-05-06T17:15:23.056Z,100605.84
2023-05-06T17:17:29.014Z,100597.69
2023-05-06T17:19:32.796Z,100594.03
2023-05-06T17:21:36.478Z,100592.63
2023-05-06T17:23:40.408Z,100604.31
2023-05-06T17:25:45.915Z,100614.31
2023-05-06T17:27:49.620Z,100607.13
2023-05-06T17:29:53.552Z,100601.31
2023-05-06T17:31:57.198Z,100605.53
2023-05-06T17:34:00.789Z,100604.66
2023-05-06T17:36:04.388Z,100608.59
2023-05-06T17:38:08.060Z,100602.44
2023-05-06T17:40:13.176Z,100595.97
2023-05-06T17:42:18.707Z,100606.94
2023-05-06T17:44:23.200Z,100598.19
2023-05-06T17:46:30.683Z,100608.88
2023-05-06T17:48:34.880Z,100605.25
2023-05-06T17:50:38.593Z,100608.59
2023-05-06T17:52:42.413Z,100612.00
2023-05-06T17:54:49.489Z,100606.94
2023-05-06T17:56:56.803Z,100613.81
2023-05-06T17:59:02.801Z,100603.97
2023-05-06T18:01:06.877Z,100607.47
2023-05-06T18:03:11.676Z,100604.97
2023-05-06T18:05:15.129Z,100603.53
2023-05-06T18:07:18.843Z,100600.19
2023-05-06T18:09:22.533Z,100610.88
2023-05-06T18:11:26.361Z,100609.16
2023-05-06T18:13:30.102Z,100615.34
2023-05-06T18:15:35.385Z,100612.69
2023-05-06T18:17:39.179Z,100615.34
2023-05-06T18:19:42.900Z,100620.69
2023-05-06T18:21:47.185Z,100613.53
2023-05-06T18:23:53.606Z,100621.56
2023-05-06T18:26:05.346Z,100621.56
2023-05-06T18:28:08.939Z,100623.22
2023-05-06T18:30:13.426Z,100618.03
2023-05-06T18:32:18.706Z,100620.69
2023-05-06T18:34:22.826Z,100621.66
2023-05-06T18:36:27.105Z,100632.50
2023-05-06T18:38:31.014Z,100630.25
2023-05-06T18:40:35.361Z,100637.53
2023-05-06T18:42:39.786Z,100633.44
2023-05-06T18:44:44.346Z,100639.06
2023-05-06T18:46:49.013Z,100635.81
2023-05-06T18:48:56.381Z,100636.09
2023-05-06T18:51:12.255Z,100646.34
2023-05-06T18:53:16.874Z,100644.81
2023-05-06T18:55:20.980Z,100640.56
2023-05-06T18:57:26.710Z,100640.00
2023-05-06T18:59:30.940Z,100641.09
2023-05-06T19:01:34.880Z,100642.22
2023-05-06T19:03:40.070Z,100647.81
2023-05-06T19:05:45.213Z,100642.75
2023-05-06T19:07:49.373Z,100654.56
2023-05-06T19:09:53.382Z,100654.81
2023-05-06T19:11:56.950Z,100653.13
2023-05-06T19:14:00.850Z,100657.03
2023-05-06T19:16:04.632Z,100664.31
2023-05-06T19:18:09.020Z,100667.13
2023-05-06T19:20:14.669Z,100668.09
2023-05-06T19:22:20.126Z,100676.25
2023-05-06T19:24:24.180Z,100664.88
2023-05-06T19:26:28.074Z,100665.09
2023-05-06T19:28:32.311Z,100675.78
2023-05-06T19:30:36.835Z,100670.56
2023-05-06T19:32:40.817Z,100669.75
2023-05-06T19:34:45.104Z,100670.72
2023-05-06T19:36:48.875Z,100670.03
2023-05-06T19:38:54.186Z,100670.97
2023-05-06T19:40:58.007Z,100674.63
2023-05-06T19:43:04.340Z,100672.94
2023-05-06T19:45:09.596Z,100673.94
2023-05-06T19:47:14.321Z,100674.75
2023-05-06T19:49:18.212Z,100675.16
2023-05-06T19:51:22.093Z,100671.75
2023-05-06T19:53:25.901Z,100677.34
2023-05-06T19:55:31.329Z,100680.13
2023-05-06T19:57:34.943Z,100677.75
2023-05-06T19:59:38.800Z,100677.16
2023-05-06T20:01:42.752Z,100681.75
2023-05-06T20:03:46.846Z,100687.34
2023-05-06T20:05:50.579Z,100688.59
2023-05-06T20:07:55.594Z,100689.69
2023-05-06T20:09:59.423Z,100687.16
2023-05-06T20:12:04.687Z,100689.13
2023-05-06T20:14:08.470Z,100690.09
2023-05-06T20:16:12.769Z,100692.00
2023-05-06T20:18:16.543Z,100699.31
2023-05-06T20:20:20.619Z,100700.53
2023-05-06T20:22:24.375Z,100702.47
2023-05-06T20:24:29.872Z,100693.16
2023-05-06T20:26:34.078Z,100698.63
2023-05-06T20:28:39.501Z,100698.91
2023-05-06T20:30:43.501Z,100708.00
2023-05-06T20:32:49.554Z,100704.72
2023-05-06T20:34:55.075Z,100712.00
2023-05-06T20:37:00.107Z,100712.25
2023-05-06T20:39:03.652Z,100719.53
2023-05-06T20:41:07.354Z,100715.44
2023-05-06T20:43:11.274Z,100713.59
2023-05-06T20:45:16.350Z,100713.84
2023-05-06T20:47:20.085Z,100718.56
2023-05-06T20:49:23.941Z,100718.84
2023-05-06T20:51:29.074Z,100727.22
2023-05-06T20:53:32.860Z,100722.38
2023-05-06T20:55:36.740Z,100728.06
2023-05-06T20:57:45.319Z,100722.25
2023-05-06T20:59:51.365Z,100725.31
2023-05-06T21:01:56.513Z,100731.13
2023-05-06T21:04:01.586Z,100729.66
2023-05-06T21:06:05.573Z,100725.81
2023-05-06T21:08:09.429Z,100734.13
2023-05-06T21:10:13.370Z,100735.34
2023-05-06T21:12:17.340Z,100740.19
2023-05-06T21:14:21.164Z,100732.41
2023-05-06T21:16:25.052Z,100738.94
2023-05-06T21:18:30.562Z,100737.03
2023-05-06T21:20:34.744Z,100743.44
2023-05-06T21:22:38.776Z,100739.19
2023-05-06T21:24:42.863Z,100739.44
2023-05-06T21:26:46.884Z,100733.38
2023-05-06T21:28:52.585Z,100737.09
2023-05-06T21:30:56.539Z,100735.66
2023-05-06T21:33:03.046Z,100747.38
2023-05-06T21:35:09.634Z,100740.47
2023-05-06T21:37:13.615Z,100731.03
2023-05-06T21:39:17.645Z,100731.28
2023-05-06T21:41:21.463Z,100736.84
2023-05-06T21:43:25.051Z,100734.41
2023-05-06T21:45:29.371Z,100737.16
2023-05-06T21:47:33.365Z,100738.38
2023-05-06T21:49:37.313Z,100748.41
2023-05-06T21:51:43.131Z,100739.94
2023-05-06T21:53:50.838Z,100744.03
2023-05-06T21:55:54.757Z,100746.06
2023-05-06T21:57:58.761Z,100740.84
2023-05-06T22:00:08.385Z,100745.34
2023-05-06T22:02:12.646Z,100748.94
2023-05-06T22:04:16.977Z,100753.63
2023-05-06T22:06:20.936Z,100753.03
2023-05-06T22:08:26.267Z,100758.56
2023-05-06T22:10:30.068Z,100769.44
2023-05-06T22:12:34.293Z,100756.50
2023-05-06T22:14:41.434Z,100762.13
2023-05-06T22:16:46.674Z,100768.75
2023-05-06T22:18:52.094Z,100770.91
2023-05-06T22:20:58.013Z,100778.97
2023-05-06T22:23:02.148Z,100773.66
2023-05-06T22:25:09.006Z,100770.06
2023-05-06T22:27:13.608Z,100772.72
2023-05-06T22:29:17.686Z,100771.88
2023-05-06T22:31:22.429Z,100778.88
2023-05-06T22:33:27.456Z,100778.16
2023-05-06T22:35:31.590Z,100784.31
2023-05-06T22:37:35.449Z,100782.59
2023-05-06T22:39:39.430Z,100783.47
2023-05-06T22:41:44.938Z,100774.63
2023-05-06T22:43:49.303Z,100779.66
2023-05-06T22:45:53.404Z,100784.25
2023-05-06T22:47:57.335Z,100781.47
2023-05-06T22:50:01.483Z,100784.88
2023-05-06T22:52:05.990Z,100790.91
2023-05-06T22:54:09.954Z,100791.03
2023-05-06T22:56:14.068Z,100795.09
2023-05-06T22:58:20.046Z,100795.41
2023-05-06T23:00:24.342Z,100799.31
2023-05-06T23:02:28.769Z,100802.94
2023-05-06T23:04:33.105Z,100793.94
2023-05-06T23:06:36.922Z,100798.72
2023-05-06T23:08:41.159Z,100794.63
2023-05-06T23:10:45.196Z,100801.19
2023-05-06T23:12:49.151Z,100801.72
2023-05-06T23:14:54.495Z,100805.72
2023-05-06T23:16:58.008Z,100802.75
2023-05-06T23:19:01.694Z,100806.03
2023-05-06T23:21:05.573Z,100807.00
2023-05-06T23:23:10.836Z,100817.53
2023-05-06T23:25:15.633Z,100808.34
2023-05-06T23:27:20.143Z,100809.84
2023-05-06T23:29:23.987Z,100811.31
2023-05-06T23:31:29.156Z,100815.44
2023-05-06T23:33:32.837Z,100810.63
2023-05-06T23:35:36.669Z,100811.03
2023-05-06T23:37:40.401Z,100808.00
2023-05-06T23:39:44.007Z,100804.03
2023-05-06T23:41:47.789Z,100806.25
2023-05-06T23:43:51.361Z,100811.34
2023-05-06T23:45:55.163Z,100806.63
2023-05-06T23:48:00.280Z,100812.69